sensor_id;sensor_type;location;lat;lon;timestamp;P1;durP1;ratioP1;P2;durP2;ratioP2
19595;SDS011;9945;46.010;8.946;2023-05-10T00:00:42;5.82;;;5.28;;
19595;SDS011;9945;46.010;8.946;2023-05-10T00:03:08;4.82;;;4.53;;
19595;SDS011;9945;46.010;8.946;2023-05-10T00:05:35;5.22;;;4.80;;
19595;SDS011;9945;46.010;8.946;2023-05-10T00:08:02;4.90;;;4.60;;
19595;SDS011;9945;46.010;8.946;2023-05-10T00:10:29;4.93;;;4.55;;
19595;SDS011;9945;46.010;8.946;2023-05-10T00:12:56;6.15;;;4.80;;
19595;SDS011;9945;46.010;8.946;2023-05-10T00:15:24;4.88;;;4.47;;
19595;SDS011;9945;46.010;8.946;2023-05-10T00:17:51;3.20;;;2.90;;
19595;SDS011;9945;46.010;8.946;2023-05-10T00:20:18;2.58;;;2.45;;
19595;SDS011;9945;46.010;8.946;2023-05-10T00:22:45;1.77;;;1.67;;
19595;SDS011;9945;46.010;8.946;2023-05-10T00:25:12;1.90;;;1.60;;
19595;SDS011;9945;46.010;8.946;2023-05-10T00:27:39;1.65;;;1.55;;
19595;SDS011;9945;46.010;8.946;2023-05-10T00:30:06;1.55;;;1.45;;
19595;SDS011;9945;46.010;8.946;2023-05-10T00:32:35;1.70;;;1.60;;
19595;SDS011;9945;46.010;8.946;2023-05-10T00:35:02;2.10;;;1.60;;
19595;SDS011;9945;46.010;8.946;2023-05-10T00:37:29;3.88;;;1.60;;
19595;SDS011;9945;46.010;8.946;2023-05-10T00:39:55;3.72;;;1.85;;
19595;SDS011;9945;46.010;8.946;2023-05-10T00:42:22;1.92;;;1.77;;
19595;SDS011;9945;46.010;8.946;2023-05-10T00:44:49;2.50;;;1.65;;
19595;SDS011;9945;46.010;8.946;2023-05-10T00:47:16;1.63;;;1.60;;
19595;SDS011;9945;46.010;8.946;2023-05-10T00:49:45;1.85;;;1.63;;
19595;SDS011;9945;46.010;8.946;2023-05-10T00:52:12;2.00;;;1.90;;
19595;SDS011;9945;46.010;8.946;2023-05-10T00:54:39;1.70;;;1.60;;
19595;SDS011;9945;46.010;8.946;2023-05-10T00:57:06;1.95;;;1.85;;
19595;SDS011;9945;46.010;8.946;2023-05-10T00:59:33;2.20;;;2.10;;
19595;SDS011;9945;46.010;8.946;2023-05-10T01:02:01;3.08;;;2.20;;
19595;SDS011;9945;46.010;8.946;2023-05-10T01:04:28;2.53;;;2.33;;
19595;SDS011;9945;46.010;8.946;2023-05-10T01:06:56;2.25;;;2.15;;
19595;SDS011;9945;46.010;8.946;2023-05-10T01:09:24;2.65;;;2.08;;
19595;SDS011;9945;46.010;8.946;2023-05-10T01:11:52;2.97;;;2.65;;
19595;SDS011;9945;46.010;8.946;2023-05-10T01:14:20;3.38;;;2.58;;
19595;SDS011;9945;46.010;8.946;2023-05-10T01:16:48;2.80;;;2.60;;
19595;SDS011;9945;46.010;8.946;2023-05-10T01:19:19;1.88;;;1.77;;
19595;SDS011;9945;46.010;8.946;2023-05-10T01:21:53;2.00;;;1.90;;
19595;SDS011;9945;46.010;8.946;2023-05-10T01:24:39;2.20;;;2.10;;
19595;SDS011;9945;46.010;8.946;2023-05-10T01:27:30;3.80;;;2.05;;
19595;SDS011;9945;46.010;8.946;2023-05-10T01:30:13;2.25;;;2.15;;
19595;SDS011;9945;46.010;8.946;2023-05-10T01:33:02;2.17;;;2.03;;
19595;SDS011;9945;46.010;8.946;2023-05-10T01:35:37;2.10;;;2.00;;
19595;SDS011;9945;46.010;8.946;2023-05-10T01:38:10;2.10;;;2.00;;
19595;SDS011;9945;46.010;8.946;2023-05-10T01:40:48;2.38;;;2.28;;
19595;SDS011;9945;46.010;8.946;2023-05-10T01:43:25;2.10;;;2.00;;
19595;SDS011;9945;46.010;8.946;2023-05-10T01:45:59;2.08;;;1.98;;
19595;SDS011;9945;46.010;8.946;2023-05-10T01:48:36;3.40;;;2.30;;
19595;SDS011;9945;46.010;8.946;2023-05-10T01:51:08;2.28;;;2.03;;
19595;SDS011;9945;46.010;8.946;2023-05-10T01:53:37;2.17;;;2.08;;
19595;SDS011;9945;46.010;8.946;2023-05-10T01:56:05;3.17;;;2.90;;
19595;SDS011;9945;46.010;8.946;2023-05-10T01:58:36;2.08;;;1.98;;
19595;SDS011;9945;46.010;8.946;2023-05-10T02:01:06;2.10;;;2.00;;
19595;SDS011;9945;46.010;8.946;2023-05-10T02:03:34;2.25;;;2.15;;
19595;SDS011;9945;46.010;8.946;2023-05-10T02:06:05;2.22;;;2.13;;
19595;SDS011;9945;46.010;8.946;2023-05-10T02:08:33;2.30;;;2.10;;
19595;SDS011;9945;46.010;8.946;2023-05-10T02:11:02;2.38;;;2.22;;
19595;SDS011;9945;46.010;8.946;2023-05-10T02:13:30;2.50;;;2.40;;
19595;SDS011;9945;46.010;8.946;2023-05-10T02:16:01;2.33;;;2.22;;
19595;SDS011;9945;46.010;8.946;2023-05-10T02:18:29;2.58;;;2.38;;
19595;SDS011;9945;46.010;8.946;2023-05-10T02:20:59;4.88;;;2.30;;
19595;SDS011;9945;46.010;8.946;2023-05-10T02:23:27;2.28;;;2.17;;
19595;SDS011;9945;46.010;8.946;2023-05-10T02:25:55;2.20;;;2.10;;
19595;SDS011;9945;46.010;8.946;2023-05-10T02:28:24;2.60;;;2.40;;
19595;SDS011;9945;46.010;8.946;2023-05-10T02:30:52;2.25;;;1.80;;
19595;SDS011;9945;46.010;8.946;2023-05-10T02:33:21;2.53;;;2.33;;
19595;SDS011;9945;46.010;8.946;2023-05-10T02:35:48;2.50;;;2.40;;
19595;SDS011;9945;46.010;8.946;2023-05-10T02:38:18;2.33;;;2.22;;
19595;SDS011;9945;46.010;8.946;2023-05-10T02:40:46;2.40;;;2.30;;
19595;SDS011;9945;46.010;8.946;2023-05-10T02:43:14;2.30;;;2.10;;
19595;SDS011;9945;46.010;8.946;2023-05-10T02:45:43;3.95;;;2.28;;
19595;SDS011;9945;46.010;8.946;2023-05-10T02:48:14;1.88;;;1.77;;
19595;SDS011;9945;46.010;8.946;2023-05-10T02:50:42;1.95;;;1.67;;
19595;SDS011;9945;46.010;8.946;2023-05-10T02:53:13;2.50;;;1.90;;
19595;SDS011;9945;46.010;8.946;2023-05-10T02:55:43;3.28;;;1.80;;
19595;SDS011;9945;46.010;8.946;2023-05-10T02:58:13;3.60;;;2.20;;
19595;SDS011;9945;46.010;8.946;2023-05-10T03:00:40;2.15;;;1.95;;
19595;SDS011;9945;46.010;8.946;2023-05-10T03:03:07;2.10;;;2.00;;
19595;SDS011;9945;46.010;8.946;2023-05-10T03:05:34;2.08;;;1.83;;
19595;SDS011;9945;46.010;8.946;2023-05-10T03:08:01;2.17;;;1.90;;
19595;SDS011;9945;46.010;8.946;2023-05-10T03:10:30;2.05;;;1.83;;
19595;SDS011;9945;46.010;8.946;2023-05-10T03:13:06;2.72;;;1.73;;
19595;SDS011;9945;46.010;8.946;2023-05-10T03:15:38;2.80;;;1.90;;
19595;SDS011;9945;46.010;8.946;2023-05-10T03:18:15;2.53;;;2.10;;
19595;SDS011;9945;46.010;8.946;2023-05-10T03:20:47;2.92;;;2.22;;
19595;SDS011;9945;46.010;8.946;2023-05-10T03:23:20;2.38;;;1.88;;
19595;SDS011;9945;46.010;8.946;2023-05-10T03:25:49;2.03;;;1.92;;
19595;SDS011;9945;46.010;8.946;2023-05-10T03:28:18;1.90;;;1.80;;
19595;SDS011;9945;46.010;8.946;2023-05-10T03:30:47;2.08;;;1.67;;
19595;SDS011;9945;46.010;8.946;2023-05-10T03:33:15;2.28;;;2.10;;
19595;SDS011;9945;46.010;8.946;2023-05-10T03:35:42;1.92;;;1.83;;
19595;SDS011;9945;46.010;8.946;2023-05-10T03:38:10;1.98;;;1.88;;
19595;SDS011;9945;46.010;8.946;2023-05-10T03:40:37;2.00;;;1.90;;
19595;SDS011;9945;46.010;8.946;2023-05-10T03:43:05;2.70;;;1.98;;
19595;SDS011;9945;46.010;8.946;2023-05-10T03:45:33;1.85;;;1.75;;
19595;SDS011;9945;46.010;8.946;2023-05-10T03:48:00;2.00;;;1.90;;
19595;SDS011;9945;46.010;8.946;2023-05-10T03:50:27;1.70;;;1.60;;
19595;SDS011;9945;46.010;8.946;2023-05-10T03:52:54;1.60;;;1.50;;
19595;SDS011;9945;46.010;8.946;2023-05-10T03:55:22;1.60;;;1.50;;
19595;SDS011;9945;46.010;8.946;2023-05-10T03:57:49;2.03;;;1.85;;
19595;SDS011;9945;46.010;8.946;2023-05-10T04:00:16;1.95;;;1.85;;
19595;SDS011;9945;46.010;8.946;2023-05-10T04:02:44;1.88;;;1.55;;
19595;SDS011;9945;46.010;8.946;2023-05-10T04:05:11;1.75;;;1.58;;
19595;SDS011;9945;46.010;8.946;2023-05-10T04:07:38;2.80;;;1.80;;
19595;SDS011;9945;46.010;8.946;2023-05-10T04:10:05;2.05;;;1.63;;
19595;SDS011;9945;46.010;8.946;2023-05-10T04:12:33;3.15;;;1.65;;
19595;SDS011;9945;46.010;8.946;2023-05-10T04:15:00;2.72;;;1.90;;
19595;SDS011;9945;46.010;8.946;2023-05-10T04:17:27;1.90;;;1.55;;
19595;SDS011;9945;46.010;8.946;2023-05-10T04:19:55;1.63;;;1.52;;
19595;SDS011;9945;46.010;8.946;2023-05-10T04:22:22;1.92;;;1.80;;
19595;SDS011;9945;46.010;8.946;2023-05-10T04:24:49;1.60;;;1.50;;
19595;SDS011;9945;46.010;8.946;2023-05-10T04:27:16;1.45;;;1.35;;
19595;SDS011;9945;46.010;8.946;2023-05-10T04:29:42;1.65;;;1.50;;
19595;SDS011;9945;46.010;8.946;2023-05-10T04:32:09;3.40;;;1.55;;
19595;SDS011;9945;46.010;8.946;2023-05-10T04:34:36;1.65;;;1.55;;
19595;SDS011;9945;46.010;8.946;2023-05-10T04:37:04;1.35;;;1.35;;
19595;SDS011;9945;46.010;8.946;2023-05-10T04:39:32;1.75;;;1.65;;
19595;SDS011;9945;46.010;8.946;2023-05-10T04:42:00;1.92;;;1.80;;
19595;SDS011;9945;46.010;8.946;2023-05-10T04:44:27;1.33;;;1.33;;
19595;SDS011;9945;46.010;8.946;2023-05-10T04:46:54;3.20;;;1.30;;
19595;SDS011;9945;46.010;8.946;2023-05-10T04:49:21;1.60;;;1.50;;
19595;SDS011;9945;46.010;8.946;2023-05-10T04:51:48;1.98;;;1.77;;
19595;SDS011;9945;46.010;8.946;2023-05-10T04:54:16;1.60;;;1.50;;
19595;SDS011;9945;46.010;8.946;2023-05-10T04:56:43;1.77;;;1.67;;
19595;SDS011;9945;46.010;8.946;2023-05-10T04:59:10;1.30;;;1.30;;
19595;SDS011;9945;46.010;8.946;2023-05-10T05:01:37;1.80;;;1.70;;
19595;SDS011;9945;46.010;8.946;2023-05-10T05:04:04;2.15;;;1.77;;
19595;SDS011;9945;46.010;8.946;2023-05-10T05:06:31;2.40;;;1.60;;
19595;SDS011;9945;46.010;8.946;2023-05-10T05:08:58;1.88;;;1.60;;
19595;SDS011;9945;46.010;8.946;2023-05-10T05:11:27;2.00;;;1.52;;
19595;SDS011;9945;46.010;8.946;2023-05-10T05:13:53;2.55;;;1.75;;
19595;SDS011;9945;46.010;8.946;2023-05-10T05:16:20;1.50;;;1.40;;
19595;SDS011;9945;46.010;8.946;2023-05-10T05:18:47;1.63;;;1.50;;
19595;SDS011;9945;46.010;8.946;2023-05-10T05:21:14;1.60;;;1.50;;
19595;SDS011;9945;46.010;8.946;2023-05-10T05:23:42;1.65;;;1.48;;
19595;SDS011;9945;46.010;8.946;2023-05-10T05:26:09;1.75;;;1.65;;
19595;SDS011;9945;46.010;8.946;2023-05-10T05:28:37;1.50;;;1.40;;
19595;SDS011;9945;46.010;8.946;2023-05-10T05:31:04;1.65;;;1.58;;
19595;SDS011;9945;46.010;8.946;2023-05-10T05:33:32;1.70;;;1.60;;
19595;SDS011;9945;46.010;8.946;2023-05-10T05:36:00;1.67;;;1.58;;
19595;SDS011;9945;46.010;8.946;2023-05-10T05:38:27;1.60;;;1.50;;
19595;SDS011;9945;46.010;8.946;2023-05-10T05:40:54;3.35;;;1.58;;
19595;SDS011;9945;46.010;8.946;2023-05-10T05:43:20;1.60;;;1.60;;
19595;SDS011;9945;46.010;8.946;2023-05-10T05:45:49;1.83;;;1.73;;
19595;SDS011;9945;46.010;8.946;2023-05-10T05:48:16;1.77;;;1.63;;
19595;SDS011;9945;46.010;8.946;2023-05-10T05:50:42;1.88;;;1.77;;
19595;SDS011;9945;46.010;8.946;2023-05-10T05:53:10;1.73;;;1.63;;
19595;SDS011;9945;46.010;8.946;2023-05-10T05:55:37;1.73;;;1.58;;
19595;SDS011;9945;46.010;8.946;2023-05-10T05:58:04;2.50;;;2.20;;
19595;SDS011;9945;46.010;8.946;2023-05-10T06:00:31;1.92;;;1.83;;
19595;SDS011;9945;46.010;8.946;2023-05-10T06:02:59;3.35;;;2.10;;
19595;SDS011;9945;46.010;8.946;2023-05-10T06:05:26;2.38;;;2.20;;
19595;SDS011;9945;46.010;8.946;2023-05-10T06:07:53;4.57;;;2.03;;
19595;SDS011;9945;46.010;8.946;2023-05-10T06:10:19;3.08;;;1.92;;
19595;SDS011;9945;46.010;8.946;2023-05-10T06:12:46;2.58;;;2.20;;
19595;SDS011;9945;46.010;8.946;2023-05-10T06:15:13;2.58;;;2.38;;
19595;SDS011;9945;46.010;8.946;2023-05-10T06:17:40;2.63;;;2.15;;
19595;SDS011;9945;46.010;8.946;2023-05-10T06:20:10;3.13;;;2.08;;
19595;SDS011;9945;46.010;8.946;2023-05-10T06:22:38;3.53;;;1.83;;
19595;SDS011;9945;46.010;8.946;2023-05-10T06:25:05;2.10;;;2.00;;
19595;SDS011;9945;46.010;8.946;2023-05-10T06:27:33;2.17;;;2.08;;
19595;SDS011;9945;46.010;8.946;2023-05-10T06:29:59;1.90;;;1.80;;
19595;SDS011;9945;46.010;8.946;2023-05-10T06:32:27;2.20;;;2.10;;
19595;SDS011;9945;46.010;8.946;2023-05-10T06:34:54;2.35;;;2.15;;
19595;SDS011;9945;46.010;8.946;2023-05-10T06:37:22;2.72;;;2.33;;
19595;SDS011;9945;46.010;8.946;2023-05-10T06:39:49;2.78;;;2.60;;
19595;SDS011;9945;46.010;8.946;2023-05-10T06:42:16;3.97;;;2.10;;
19595;SDS011;9945;46.010;8.946;2023-05-10T06:44:43;3.78;;;2.55;;
19595;SDS011;9945;46.010;8.946;2023-05-10T06:47:10;1.98;;;1.88;;
19595;SDS011;9945;46.010;8.946;2023-05-10T06:49:36;3.75;;;1.85;;
19595;SDS011;9945;46.010;8.946;2023-05-10T06:52:03;2.70;;;1.63;;
19595;SDS011;9945;46.010;8.946;2023-05-10T06:54:31;1.75;;;1.65;;
19595;SDS011;9945;46.010;8.946;2023-05-10T06:56:58;1.90;;;1.80;;
19595;SDS011;9945;46.010;8.946;2023-05-10T06:59:25;1.80;;;1.70;;
19595;SDS011;9945;46.010;8.946;2023-05-10T07:01:52;2.00;;;1.90;;
19595;SDS011;9945;46.010;8.946;2023-05-10T07:04:19;4.20;;;2.30;;
19595;SDS011;9945;46.010;8.946;2023-05-10T07:06:46;2.65;;;2.10;;
19595;SDS011;9945;46.010;8.946;2023-05-10T07:09:14;2.08;;;1.98;;
19595;SDS011;9945;46.010;8.946;2023-05-10T07:11:43;3.28;;;2.35;;
19595;SDS011;9945;46.010;8.946;2023-05-10T07:14:10;2.70;;;2.30;;
19595;SDS011;9945;46.010;8.946;2023-05-10T07:16:37;2.50;;;2.33;;
19595;SDS011;9945;46.010;8.946;2023-05-10T07:19:03;2.35;;;2.15;;
19595;SDS011;9945;46.010;8.946;2023-05-10T07:21:31;3.10;;;2.53;;
19595;SDS011;9945;46.010;8.946;2023-05-10T07:23:58;3.35;;;2.80;;
19595;SDS011;9945;46.010;8.946;2023-05-10T07:26:26;2.95;;;2.47;;
19595;SDS011;9945;46.010;8.946;2023-05-10T07:28:54;3.03;;;2.85;;
19595;SDS011;9945;46.010;8.946;2023-05-10T07:31:21;3.05;;;2.80;;
19595;SDS011;9945;46.010;8.946;2023-05-10T07:33:47;3.08;;;2.88;;
19595;SDS011;9945;46.010;8.946;2023-05-10T07:36:14;3.35;;;3.15;;
19595;SDS011;9945;46.010;8.946;2023-05-10T07:38:41;3.15;;;2.65;;
19595;SDS011;9945;46.010;8.946;2023-05-10T07:41:09;5.85;;;2.90;;
19595;SDS011;9945;46.010;8.946;2023-05-10T07:43:37;6.30;;;3.22;;
19595;SDS011;9945;46.010;8.946;2023-05-10T07:46:06;3.28;;;3.08;;
19595;SDS011;9945;46.010;8.946;2023-05-10T07:48:35;3.17;;;2.88;;
19595;SDS011;9945;46.010;8.946;2023-05-10T07:51:02;4.30;;;3.03;;
19595;SDS011;9945;46.010;8.946;2023-05-10T07:53:29;4.55;;;2.78;;
19595;SDS011;9945;46.010;8.946;2023-05-10T07:55:57;2.67;;;2.50;;
19595;SDS011;9945;46.010;8.946;2023-05-10T07:58:24;6.88;;;2.83;;
19595;SDS011;9945;46.010;8.946;2023-05-10T08:00:51;3.10;;;2.90;;
19595;SDS011;9945;46.010;8.946;2023-05-10T08:03:20;3.10;;;2.80;;
19595;SDS011;9945;46.010;8.946;2023-05-10T08:05:47;4.28;;;2.97;;
19595;SDS011;9945;46.010;8.946;2023-05-10T08:08:14;3.47;;;3.28;;
19595;SDS011;9945;46.010;8.946;2023-05-10T08:10:40;3.05;;;2.85;;
19595;SDS011;9945;46.010;8.946;2023-05-10T08:13:07;4.65;;;2.70;;
19595;SDS011;9945;46.010;8.946;2023-05-10T08:15:34;3.15;;;2.65;;
19595;SDS011;9945;46.010;8.946;2023-05-10T08:18:01;3.63;;;2.65;;
19595;SDS011;9945;46.010;8.946;2023-05-10T08:20:30;3.58;;;3.28;;
19595;SDS011;9945;46.010;8.946;2023-05-10T08:22:57;2.75;;;2.55;;
19595;SDS011;9945;46.010;8.946;2023-05-10T08:25:24;3.17;;;2.97;;
19595;SDS011;9945;46.010;8.946;2023-05-10T08:27:51;4.18;;;3.05;;
19595;SDS011;9945;46.010;8.946;2023-05-10T08:30:18;4.10;;;2.85;;
19595;SDS011;9945;46.010;8.946;2023-05-10T08:32:44;3.05;;;2.85;;
19595;SDS011;9945;46.010;8.946;2023-05-10T08:35:11;3.63;;;3.03;;
19595;SDS011;9945;46.010;8.946;2023-05-10T08:37:40;3.17;;;2.35;;
19595;SDS011;9945;46.010;8.946;2023-05-10T08:40:07;3.35;;;2.55;;
19595;SDS011;9945;46.010;8.946;2023-05-10T08:42:39;4.35;;;2.30;;
19595;SDS011;9945;46.010;8.946;2023-05-10T08:45:08;2.70;;;2.60;;
19595;SDS011;9945;46.010;8.946;2023-05-10T08:47:36;2.65;;;2.47;;
19595;SDS011;9945;46.010;8.946;2023-05-10T08:50:05;2.55;;;2.45;;
19595;SDS011;9945;46.010;8.946;2023-05-10T08:52:33;3.40;;;2.63;;
19595;SDS011;9945;46.010;8.946;2023-05-10T08:55:06;3.72;;;2.92;;
19595;SDS011;9945;46.010;8.946;2023-05-10T08:57:34;2.90;;;2.70;;
19595;SDS011;9945;46.010;8.946;2023-05-10T09:00:02;3.45;;;3.08;;
19595;SDS011;9945;46.010;8.946;2023-05-10T09:02:30;4.53;;;2.90;;
19595;SDS011;9945;46.010;8.946;2023-05-10T09:04:57;3.05;;;2.90;;
19595;SDS011;9945;46.010;8.946;2023-05-10T09:07:24;3.47;;;3.25;;
19595;SDS011;9945;46.010;8.946;2023-05-10T09:09:52;3.28;;;2.63;;
19595;SDS011;9945;46.010;8.946;2023-05-10T09:12:22;3.28;;;3.08;;
19595;SDS011;9945;46.010;8.946;2023-05-10T09:14:49;3.33;;;3.08;;
19595;SDS011;9945;46.010;8.946;2023-05-10T09:17:18;3.20;;;3.00;;
19595;SDS011;9945;46.010;8.946;2023-05-10T09:19:45;3.08;;;2.88;;
19595;SDS011;9945;46.010;8.946;2023-05-10T09:22:12;3.28;;;2.92;;
19595;SDS011;9945;46.010;8.946;2023-05-10T09:24:38;3.10;;;2.88;;
19595;SDS011;9945;46.010;8.946;2023-05-10T09:27:10;3.08;;;2.88;;
19595;SDS011;9945;46.010;8.946;2023-05-10T09:29:41;3.92;;;3.60;;
19595;SDS011;9945;46.010;8.946;2023-05-10T09:32:09;3.38;;;3.13;;
19595;SDS011;9945;46.010;8.946;2023-05-10T09:34:36;2.50;;;2.40;;
19595;SDS011;9945;46.010;8.946;2023-05-10T09:37:05;3.50;;;3.30;;
19595;SDS011;9945;46.010;8.946;2023-05-10T09:39:33;5.93;;;2.90;;
19595;SDS011;9945;46.010;8.946;2023-05-10T09:42:02;3.13;;;2.92;;
19595;SDS011;9945;46.010;8.946;2023-05-10T09:44:30;3.17;;;2.97;;
19595;SDS011;9945;46.010;8.946;2023-05-10T09:46:59;4.07;;;3.47;;
19595;SDS011;9945;46.010;8.946;2023-05-10T09:49:26;7.03;;;3.63;;
19595;SDS011;9945;46.010;8.946;2023-05-10T09:52:03;3.60;;;3.30;;
19595;SDS011;9945;46.010;8.946;2023-05-10T09:54:31;4.57;;;3.60;;
19595;SDS011;9945;46.010;8.946;2023-05-10T09:56:58;3.10;;;2.90;;
19595;SDS011;9945;46.010;8.946;2023-05-10T09:59:26;4.18;;;3.00;;
19595;SDS011;9945;46.010;8.946;2023-05-10T10:01:55;3.47;;;3.28;;
19595;SDS011;9945;46.010;8.946;2023-05-10T10:04:24;4.07;;;3.40;;
19595;SDS011;9945;46.010;8.946;2023-05-10T10:07:00;4.55;;;3.05;;
19595;SDS011;9945;46.010;8.946;2023-05-10T10:09:28;2.53;;;2.42;;
19595;SDS011;9945;46.010;8.946;2023-05-10T10:11:55;3.35;;;3.13;;
19595;SDS011;9945;46.010;8.946;2023-05-10T10:14:23;3.00;;;2.58;;
19595;SDS011;9945;46.010;8.946;2023-05-10T10:16:50;5.38;;;3.17;;
19595;SDS011;9945;46.010;8.946;2023-05-10T10:19:18;4.13;;;3.40;;
19595;SDS011;9945;46.010;8.946;2023-05-10T10:21:46;3.55;;;3.05;;
19595;SDS011;9945;46.010;8.946;2023-05-10T10:24:13;3.10;;;2.80;;
19595;SDS011;9945;46.010;8.946;2023-05-10T10:26:40;3.72;;;3.42;;
19595;SDS011;9945;46.010;8.946;2023-05-10T10:29:11;3.05;;;2.92;;
19595;SDS011;9945;46.010;8.946;2023-05-10T10:31:46;3.95;;;3.00;;
19595;SDS011;9945;46.010;8.946;2023-05-10T10:34:21;3.45;;;3.25;;
19595;SDS011;9945;46.010;8.946;2023-05-10T10:36:54;3.05;;;2.85;;
19595;SDS011;9945;46.010;8.946;2023-05-10T10:39:23;3.47;;;3.25;;
19595;SDS011;9945;46.010;8.946;2023-05-10T10:41:51;3.25;;;3.05;;
19595;SDS011;9945;46.010;8.946;2023-05-10T10:44:25;4.85;;;3.22;;
19595;SDS011;9945;46.010;8.946;2023-05-10T10:47:03;3.65;;;3.35;;
19595;SDS011;9945;46.010;8.946;2023-05-10T10:49:37;5.18;;;3.50;;
19595;SDS011;9945;46.010;8.946;2023-05-10T10:52:17;3.22;;;3.03;;
19595;SDS011;9945;46.010;8.946;2023-05-10T10:54:50;3.10;;;2.80;;
19595;SDS011;9945;46.010;8.946;2023-05-10T10:57:19;3.85;;;3.58;;
19595;SDS011;9945;46.010;8.946;2023-05-10T10:59:47;3.72;;;3.53;;
19595;SDS011;9945;46.010;8.946;2023-05-10T11:02:34;3.55;;;3.25;;
19595;SDS011;9945;46.010;8.946;2023-05-10T11:05:33;3.30;;;3.10;;
19595;SDS011;9945;46.010;8.946;2023-05-10T11:08:13;3.75;;;3.50;;
19595;SDS011;9945;46.010;8.946;2023-05-10T11:10:52;2.92;;;2.72;;
19595;SDS011;9945;46.010;8.946;2023-05-10T11:13:39;5.03;;;3.42;;
19595;SDS011;9945;46.010;8.946;2023-05-10T11:16:16;3.78;;;3.10;;
19595;SDS011;9945;46.010;8.946;2023-05-10T11:18:57;4.22;;;3.50;;
19595;SDS011;9945;46.010;8.946;2023-05-10T11:21:27;3.45;;;3.25;;
19595;SDS011;9945;46.010;8.946;2023-05-10T11:23:57;4.25;;;3.33;;
19595;SDS011;9945;46.010;8.946;2023-05-10T11:26:25;3.88;;;3.20;;
19595;SDS011;9945;46.010;8.946;2023-05-10T11:28:56;2.83;;;2.60;;
19595;SDS011;9945;46.010;8.946;2023-05-10T11:31:24;3.05;;;2.85;;
19595;SDS011;9945;46.010;8.946;2023-05-10T11:33:52;2.95;;;2.40;;
19595;SDS011;9945;46.010;8.946;2023-05-10T11:36:20;2.55;;;2.35;;
19595;SDS011;9945;46.010;8.946;2023-05-10T11:38:50;3.42;;;2.42;;
19595;SDS011;9945;46.010;8.946;2023-05-10T11:41:19;3.60;;;2.63;;
19595;SDS011;9945;46.010;8.946;2023-05-10T11:43:49;2.65;;;2.22;;
19595;SDS011;9945;46.010;8.946;2023-05-10T11:46:18;2.75;;;2.55;;
19595;SDS011;9945;46.010;8.946;2023-05-10T11:48:45;2.78;;;2.58;;
19595;SDS011;9945;46.010;8.946;2023-05-10T11:51:13;3.45;;;3.25;;
19595;SDS011;9945;46.010;8.946;2023-05-10T11:53:40;3.15;;;2.85;;
19595;SDS011;9945;46.010;8.946;2023-05-10T11:56:08;3.10;;;2.90;;
19595;SDS011;9945;46.010;8.946;2023-05-10T11:58:37;2.67;;;2.47;;
19595;SDS011;9945;46.010;8.946;2023-05-10T12:01:06;2.35;;;2.15;;
19595;SDS011;9945;46.010;8.946;2023-05-10T12:03:35;4.72;;;2.67;;
19595;SDS011;9945;46.010;8.946;2023-05-10T12:06:02;2.20;;;2.10;;
19595;SDS011;9945;46.010;8.946;2023-05-10T12:08:30;2.10;;;2.00;;
19595;SDS011;9945;46.010;8.946;2023-05-10T12:11:03;2.10;;;2.00;;
19595;SDS011;9945;46.010;8.946;2023-05-10T12:13:31;3.00;;;2.80;;
19595;SDS011;9945;46.010;8.946;2023-05-10T12:15:59;2.75;;;2.55;;
19595;SDS011;9945;46.010;8.946;2023-05-10T12:18:39;2.95;;;2.63;;
19595;SDS011;9945;46.010;8.946;2023-05-10T12:21:06;2.80;;;2.60;;
19595;SDS011;9945;46.010;8.946;2023-05-10T12:23:33;3.40;;;2.47;;
19595;SDS011;9945;46.010;8.946;2023-05-10T12:26:01;2.70;;;2.50;;
19595;SDS011;9945;46.010;8.946;2023-05-10T12:28:29;3.30;;;2.03;;
19595;SDS011;9945;46.010;8.946;2023-05-10T12:30:57;2.30;;;2.20;;
19595;SDS011;9945;46.010;8.946;2023-05-10T12:33:25;2.47;;;2.28;;
19595;SDS011;9945;46.010;8.946;2023-05-10T12:35:52;2.00;;;1.90;;
19595;SDS011;9945;46.010;8.946;2023-05-10T12:38:25;2.47;;;2.28;;
19595;SDS011;9945;46.010;8.946;2023-05-10T12:40:54;2.10;;;2.00;;
19595;SDS011;9945;46.010;8.946;2023-05-10T12:43:21;2.35;;;2.20;;
19595;SDS011;9945;46.010;8.946;2023-05-10T12:45:48;2.30;;;2.20;;
19595;SDS011;9945;46.010;8.946;2023-05-10T12:48:15;4.32;;;2.08;;
19595;SDS011;9945;46.010;8.946;2023-05-10T12:50:43;2.00;;;1.90;;
19595;SDS011;9945;46.010;8.946;2023-05-10T12:53:10;2.05;;;1.95;;
19595;SDS011;9945;46.010;8.946;2023-05-10T12:55:38;3.63;;;2.22;;
19595;SDS011;9945;46.010;8.946;2023-05-10T12:58:05;2.30;;;2.10;;
19595;SDS011;9945;46.010;8.946;2023-05-10T13:00:32;2.58;;;2.38;;
19595;SDS011;9945;46.010;8.946;2023-05-10T13:02:59;2.13;;;2.03;;
19595;SDS011;9945;46.010;8.946;2023-05-10T13:05:26;2.97;;;2.35;;
19595;SDS011;9945;46.010;8.946;2023-05-10T13:07:54;2.22;;;2.13;;
19595;SDS011;9945;46.010;8.946;2023-05-10T13:10:21;2.30;;;1.60;;
19595;SDS011;9945;46.010;8.946;2023-05-10T13:12:49;1.63;;;1.50;;
19595;SDS011;9945;46.010;8.946;2023-05-10T13:15:15;1.60;;;1.60;;
19595;SDS011;9945;46.010;8.946;2023-05-10T13:17:42;2.05;;;1.80;;
19595;SDS011;9945;46.010;8.946;2023-05-10T13:20:10;2.08;;;1.98;;
19595;SDS011;9945;46.010;8.946;2023-05-10T13:22:38;2.60;;;2.40;;
19595;SDS011;9945;46.010;8.946;2023-05-10T13:25:06;1.88;;;1.77;;
19595;SDS011;9945;46.010;8.946;2023-05-10T13:27:34;5.85;;;2.25;;
19595;SDS011;9945;46.010;8.946;2023-05-10T13:30:01;2.70;;;1.83;;
19595;SDS011;9945;46.010;8.946;2023-05-10T13:32:28;1.83;;;1.73;;
19595;SDS011;9945;46.010;8.946;2023-05-10T13:34:55;1.55;;;1.45;;
19595;SDS011;9945;46.010;8.946;2023-05-10T13:37:22;1.65;;;1.60;;
19595;SDS011;9945;46.010;8.946;2023-05-10T13:39:49;2.10;;;1.90;;
19595;SDS011;9945;46.010;8.946;2023-05-10T13:42:17;3.17;;;2.00;;
19595;SDS011;9945;46.010;8.946;2023-05-10T13:44:44;2.30;;;2.10;;
19595;SDS011;9945;46.010;8.946;2023-05-10T13:47:11;2.00;;;1.90;;
19595;SDS011;9945;46.010;8.946;2023-05-10T13:49:38;2.58;;;2.22;;
19595;SDS011;9945;46.010;8.946;2023-05-10T13:52:04;2.50;;;2.40;;
19595;SDS011;9945;46.010;8.946;2023-05-10T13:54:32;2.22;;;2.00;;
19595;SDS011;9945;46.010;8.946;2023-05-10T13:56:59;1.98;;;1.88;;
19595;SDS011;9945;46.010;8.946;2023-05-10T13:59:28;3.78;;;2.20;;
19595;SDS011;9945;46.010;8.946;2023-05-10T14:01:56;3.47;;;2.38;;
19595;SDS011;9945;46.010;8.946;2023-05-10T14:04:23;3.65;;;3.45;;
19595;SDS011;9945;46.010;8.946;2023-05-10T14:06:50;3.58;;;3.35;;
19595;SDS011;9945;46.010;8.946;2023-05-10T14:09:18;4.00;;;3.60;;
19595;SDS011;9945;46.010;8.946;2023-05-10T14:11:45;3.47;;;3.28;;
19595;SDS011;9945;46.010;8.946;2023-05-10T14:14:12;3.88;;;3.50;;
19595;SDS011;9945;46.010;8.946;2023-05-10T14:16:42;8.25;;;4.00;;
19595;SDS011;9945;46.010;8.946;2023-05-10T14:19:10;4.38;;;3.22;;
19595;SDS011;9945;46.010;8.946;2023-05-10T14:21:37;3.80;;;3.50;;
19595;SDS011;9945;46.010;8.946;2023-05-10T14:24:04;5.47;;;4.03;;
19595;SDS011;9945;46.010;8.946;2023-05-10T14:26:31;4.85;;;4.43;;
19595;SDS011;9945;46.010;8.946;2023-05-10T14:28:59;4.43;;;3.60;;
19595;SDS011;9945;46.010;8.946;2023-05-10T14:31:26;4.25;;;3.85;;
19595;SDS011;9945;46.010;8.946;2023-05-10T14:33:56;3.95;;;3.75;;
19595;SDS011;9945;46.010;8.946;2023-05-10T14:36:24;4.10;;;3.80;;
19595;SDS011;9945;46.010;8.946;2023-05-10T14:38:51;3.58;;;3.38;;
19595;SDS011;9945;46.010;8.946;2023-05-10T14:41:18;4.10;;;3.72;;
19595;SDS011;9945;46.010;8.946;2023-05-10T14:43:44;4.10;;;3.58;;
19595;SDS011;9945;46.010;8.946;2023-05-10T14:46:11;4.25;;;3.95;;
19595;SDS011;9945;46.010;8.946;2023-05-10T14:48:38;3.65;;;3.35;;
19595;SDS011;9945;46.010;8.946;2023-05-10T14:51:06;3.88;;;3.13;;
19595;SDS011;9945;46.010;8.946;2023-05-10T14:53:33;3.83;;;3.63;;
19595;SDS011;9945;46.010;8.946;2023-05-10T14:56:00;4.32;;;3.40;;
19595;SDS011;9945;46.010;8.946;2023-05-10T14:58:27;3.50;;;3.30;;
19595;SDS011;9945;46.010;8.946;2023-05-10T15:00:55;3.75;;;3.53;;
19595;SDS011;9945;46.010;8.946;2023-05-10T15:03:22;3.60;;;3.40;;
19595;SDS011;9945;46.010;8.946;2023-05-10T15:05:49;3.28;;;3.05;;
19595;SDS011;9945;46.010;8.946;2023-05-10T15:08:18;3.83;;;3.40;;